createdAt,value
2023-02-06T00:01:28.910Z,96423.47
2023-02-06T00:03:56.860Z,96408.31
2023-02-06T00:06:25.079Z,96412.16
2023-02-06T00:08:53.095Z,96421.47
2023-02-06T00:11:22.530Z,96413.38
2023-02-06T00:13:50.824Z,96415.25
2023-02-06T00:16:20.934Z,96414.22
2023-02-06T00:18:49.606Z,96402.63
2023-02-06T00:21:20.402Z,96410.38
2023-02-06T00:23:48.878Z,96411.75
2023-02-06T00:26:16.773Z,96422.38
2023-02-06T00:28:47.135Z,96417.53
2023-02-06T00:31:15.836Z,96413.00
2023-02-06T00:33:43.974Z,96401.41
2023-02-06T00:36:11.985Z,96396.66
2023-02-06T00:38:40.136Z,96397.56
2023-02-06T00:41:08.025Z,96402.31
2023-02-06T00:43:36.566Z,96401.81
2023-02-06T00:46:06.134Z,96390.75
2023-02-06T00:48:34.078Z,96393.41
2023-02-06T00:51:02.103Z,96396.03
2023-02-06T00:53:30.243Z,96404.13
2023-02-06T00:55:59.440Z,96405.47
2023-02-06T00:58:27.422Z,96416.31
2023-02-06T01:00:55.455Z,96415.81
2023-02-06T01:03:25.892Z,96414.47
2023-02-06T01:05:53.843Z,96421.06
2023-02-06T01:08:23.031Z,96428.69
2023-02-06T01:10:52.414Z,96434.16
2023-02-06T01:13:20.901Z,96435.34
2023-02-06T01:15:51.016Z,96422.03
2023-02-06T01:18:19.224Z,96415.59
2023-02-06T01:20:48.539Z,96416.09
2023-02-06T01:23:16.622Z,96415.00
2023-02-06T01:25:45.366Z,96417.22
2023-02-06T01:28:13.441Z,96418.53
2023-02-06T01:30:41.404Z,96410.84
2023-02-06T01:33:09.333Z,96415.44
2023-02-06T01:35:38.298Z,96409.22
2023-02-06T01:38:09.941Z,96422.19
2023-02-06T01:40:38.868Z,96425.25
2023-02-06T01:43:12.424Z,96415.09
2023-02-06T01:45:45.244Z,96414.69
2023-02-06T01:48:17.594Z,96409.63
2023-02-06T01:50:49.052Z,96409.81
2023-02-06T01:53:19.885Z,96405.56
2023-02-06T01:55:49.620Z,96415.09
2023-02-06T01:58:22.253Z,96401.28
2023-02-06T02:00:50.644Z,96399.97
2023-02-06T02:03:18.849Z,96395.09
2023-02-06T02:05:48.883Z,96388.97
2023-02-06T02:08:22.893Z,96380.41
2023-02-06T02:10:51.416Z,96385.69
2023-02-06T02:13:19.312Z,96376.66
2023-02-06T02:15:55.310Z,96376.72
2023-02-06T02:18:38.309Z,96373.13
2023-02-06T02:21:40.524Z,96378.28
2023-02-06T02:24:15.734Z,96379.00
2023-02-06T02:27:03.804Z,96367.84
2023-02-06T02:30:05.911Z,96361.78
2023-02-06T02:32:55.396Z,96365.84
2023-02-06T02:35:32.341Z,96370.69
2023-02-06T02:38:12.918Z,96357.44
2023-02-06T02:40:47.696Z,96359.56
2023-02-06T02:43:23.764Z,96353.25
2023-02-06T02:45:57.675Z,96370.88
2023-02-06T02:48:29.208Z,96367.16
2023-02-06T02:51:00.984Z,96370.53
2023-02-06T02:53:29.080Z,96369.44
2023-02-06T02:55:57.211Z,96373.63
2023-02-06T02:58:31.118Z,96377.19
2023-02-06T03:01:03.489Z,96375.25
2023-02-06T03:03:38.653Z,96362.47
2023-02-06T03:06:36.704Z,96370.38
2023-02-06T03:09:12.692Z,96361.00
2023-02-06T03:11:45.488Z,96361.66
2023-02-06T03:14:20.694Z,96360.06
2023-02-06T03:16:53.355Z,96367.47
2023-02-06T03:19:26.036Z,96367.81
2023-02-06T03:21:55.353Z,96376.19
2023-02-06T03:24:27.401Z,96366.81
2023-02-06T03:27:00.640Z,96371.63
2023-02-06T03:29:30.577Z,96365.84
2023-02-06T03:32:01.732Z,96371.19
2023-02-06T03:34:38.202Z,96373.31
2023-02-06T03:37:08.718Z,96372.00
2023-02-06T03:39:37.049Z,96382.34
2023-02-06T03:42:06.933Z,96380.72
2023-02-06T03:44:38.140Z,96384.59
2023-02-06T03:47:08.059Z,96381.66
2023-02-06T03:49:39.082Z,96396.03
2023-02-06T03:52:11.543Z,96394.63
2023-02-06T03:54:45.406Z,96390.69
2023-02-06T03:57:19.327Z,96387.13
2023-02-06T03:59:47.756Z,96381.81
2023-02-06T04:02:17.042Z,96392.88
2023-02-06T04:04:46.213Z,96390.25
2023-02-06T04:07:19.825Z,96401.59
2023-02-06T04:09:47.765Z,96402.91
2023-02-06T04:12:16.178Z,96407.81
2023-02-06T04:14:44.567Z,96416.22
2023-02-06T04:17:14.517Z,96418.72
2023-02-06T04:19:45.210Z,96428.75
2023-02-06T04:22:16.538Z,96421.69
2023-02-06T04:24:44.744Z,96428.47
2023-02-06T04:27:14.339Z,96432.69
2023-02-06T04:29:42.316Z,96432.03
2023-02-06T04:32:10.275Z,96435.56
2023-02-06T04:34:39.399Z,96435.56
2023-02-06T04:37:07.682Z,96432.91
2023-02-06T04:39:36.956Z,96440.91
2023-02-06T04:42:05.417Z,96442.72
2023-02-06T04:44:33.793Z,96434.25
2023-02-06T04:47:03.135Z,96444.50
2023-02-06T04:49:31.399Z,96435.13
2023-02-06T04:51:59.297Z,96432.19
2023-02-06T04:54:27.196Z,96433.50
2023-02-06T04:56:56.470Z,96440.00
2023-02-06T04:59:24.384Z,96442.38
2023-02-06T05:01:52.306Z,96436.91
2023-02-06T05:04:20.234Z,96432.03
2023-02-06T05:06:48.211Z,96437.50
2023-02-06T05:09:16.085Z,96445.91
2023-02-06T05:11:43.982Z,96441.78
2023-02-06T05:14:13.251Z,96442.38
2023-02-06T05:16:41.142Z,96439.69
2023-02-06T05:19:09.388Z,96441.34
2023-02-06T05:21:37.446Z,96447.53
2023-02-06T05:24:05.679Z,96448.56
2023-02-06T05:26:33.712Z,96441.78
2023-02-06T05:29:01.613Z,96448.84
2023-02-06T05:31:31.040Z,96445.81
2023-02-06T05:33:59.052Z,96457.56
2023-02-06T05:36:26.977Z,96463.34
2023-02-06T05:38:54.867Z,96464.13
2023-02-06T05:41:22.811Z,96446.50
2023-02-06T05:43:50.725Z,96453.56
2023-02-06T05:46:19.514Z,96458.22
2023-02-06T05:48:48.836Z,96451.69
2023-02-06T05:51:16.975Z,96452.34
2023-02-06T05:53:45.022Z,96452.19
2023-02-06T05:56:12.950Z,96455.13
2023-02-06T05:58:40.889Z,96460.81
2023-02-06T06:01:08.749Z,96467.59
2023-02-06T06:03:38.323Z,96468.19
2023-02-06T06:06:08.784Z,96471.56
2023-02-06T06:08:37.066Z,96474.06
2023-02-06T06:11:04.999Z,96472.16
2023-02-06T06:13:32.992Z,96465.81
2023-02-06T06:16:00.963Z,96467.72
2023-02-06T06:18:28.955Z,96474.81
2023-02-06T06:20:56.952Z,96478.34
2023-02-06T06:23:26.240Z,96474.81
2023-02-06T06:25:54.181Z,96478.34
2023-02-06T06:28:22.131Z,96483.22
2023-02-06T06:30:50.060Z,96485.06
2023-02-06T06:33:17.984Z,96473.63
2023-02-06T06:35:45.881Z,96476.16
2023-02-06T06:38:13.747Z,96479.78
2023-02-06T06:40:43.781Z,96480.44
2023-02-06T06:43:11.783Z,96471.75
2023-02-06T06:45:39.900Z,96480.75
2023-02-06T06:48:07.936Z,96483.53
2023-02-06T06:50:35.927Z,96478.44
2023-02-06T06:53:04.230Z,96477.63
2023-02-06T06:55:32.769Z,96481.72
2023-02-06T06:58:02.359Z,96483.63
2023-02-06T07:00:30.614Z,96486.13
2023-02-06T07:02:58.536Z,96484.41
2023-02-06T07:05:26.650Z,96484.03
2023-02-06T07:07:54.628Z,96477.53
2023-02-06T07:10:22.533Z,96477.53
2023-02-06T07:12:53.479Z,96484.03
2023-02-06T07:15:22.741Z,96485.66
2023-02-06T07:17:50.730Z,96486.44
2023-02-06T07:20:18.874Z,96479.81
2023-02-06T07:22:47.495Z,96481.69
2023-02-06T07:25:15.409Z,96485.06
2023-02-06T07:27:43.406Z,96484.63
2023-02-06T07:30:12.482Z,96474.00
2023-02-06T07:32:42.132Z,96478.16
2023-02-06T07:35:10.172Z,96474.91
2023-02-06T07:37:38.257Z,96480.81
2023-02-06T07:40:07.022Z,96478.53
2023-02-06T07:42:35.037Z,96481.78
2023-02-06T07:45:11.653Z,96484.41
2023-02-06T07:47:40.936Z,96480.06
2023-02-06T07:50:09.349Z,96487.34
2023-02-06T07:52:37.580Z,96488.69
2023-02-06T07:55:05.996Z,96488.97
2023-02-06T07:57:34.055Z,96489.72
2023-02-06T08:00:02.006Z,96485.38
2023-02-06T08:02:41.263Z,96482.19
2023-02-06T08:05:10.296Z,96483.50
2023-02-06T08:07:38.345Z,96483.81
2023-02-06T08:10:06.792Z,96487.59
2023-02-06T08:12:34.757Z,96480.00
2023-02-06T08:15:02.802Z,96487.78
2023-02-06T08:17:30.816Z,96486.78
2023-02-06T08:20:00.348Z,96489.72
2023-02-06T08:22:29.912Z,96495.22
2023-02-06T08:24:57.855Z,96495.41
2023-02-06T08:27:25.776Z,96500.28
2023-02-06T08:29:53.745Z,96499.22
2023-02-06T08:32:21.642Z,96496.53
2023-02-06T08:34:49.548Z,96486.69
2023-02-06T08:37:18.945Z,96493.34
2023-02-06T08:39:46.894Z,96500.63
2023-02-06T08:42:14.836Z,96503.72
2023-02-06T08:44:42.817Z,96500.16
2023-02-06T08:47:10.900Z,96497.63
2023-02-06T08:49:39.369Z,96500.88
2023-02-06T08:52:07.310Z,96507.16
2023-02-06T08:54:38.719Z,96495.00
2023-02-06T08:57:07.381Z,96484.94
2023-02-06T08:59:35.669Z,96494.03
2023-02-06T09:02:03.674Z,96496.81
2023-02-06T09:04:34.615Z,96488.00
2023-02-06T09:07:02.948Z,96483.84
2023-02-06T09:09:30.959Z,96494.25
2023-02-06T09:12:03.676Z,96494.31
2023-02-06T09:14:32.206Z,96496.94
2023-02-06T09:17:00.185Z,96501.84
2023-02-06T09:19:28.149Z,96507.06
2023-02-06T09:21:56.335Z,96513.53
2023-02-06T09:24:24.288Z,96508.66
2023-02-06T09:26:59.887Z,96515.44
2023-02-06T09:29:31.972Z,96517.63
2023-02-06T09:32:00.550Z,96522.69
2023-02-06T09:34:28.725Z,96530.41
2023-02-06T09:36:56.984Z,96532.81
2023-02-06T09:39:25.944Z,96525.75
2023-02-06T09:41:57.184Z,96524.03
2023-02-06T09:44:35.404Z,96522.56
2023-02-06T09:47:07.404Z,96518.63
2023-02-06T09:49:40.560Z,96510.09
2023-02-06T09:52:34.917Z,96508.84
2023-02-06T09:55:11.080Z,96510.38
2023-02-06T09:57:46.354Z,96501.63
2023-02-06T10:00:31.018Z,96516.19
2023-02-06T10:03:12.553Z,96516.41
2023-02-06T10:05:50.610Z,96512.03
2023-02-06T10:08:23.839Z,96513.22
2023-02-06T10:10:54.960Z,96519.72
2023-02-06T10:13:27.387Z,96503.81
2023-02-06T10:16:02.357Z,96513.53
2023-02-06T10:18:36.144Z,96503.81
2023-02-06T10:21:11.980Z,96527.53
2023-02-06T10:23:47.432Z,96530.91
2023-02-06T10:26:18.693Z,96518.72
2023-02-06T10:28:51.353Z,96513.34
2023-02-06T10:31:35.697Z,96518.69
2023-02-06T10:34:26.886Z,96516.28
2023-02-06T10:37:08.211Z,96521.28
2023-02-06T10:39:54.602Z,96511.81
2023-02-06T10:42:31.160Z,96515.22
2023-02-06T10:45:19.004Z,96517.56
2023-02-06T10:47:55.244Z,96504.88
2023-02-06T10:50:29.802Z,96510.06
2023-02-06T10:53:03.092Z,96504.31
2023-02-06T10:55:38.613Z,96501.75
2023-02-06T10:58:14.618Z,96502.09
2023-02-06T11:00:45.249Z,96495.91
2023-02-06T11:03:18.053Z,96509.63
2023-02-06T11:05:46.497Z,96493.91
2023-02-06T11:08:21.723Z,96499.16
2023-02-06T11:10:50.213Z,96488.09
2023-02-06T11:13:25.300Z,96489.72
2023-02-06T11:16:00.433Z,96481.63
2023-02-06T11:18:34.506Z,96475.41
2023-02-06T11:21:02.561Z,96473.53
2023-02-06T11:23:34.754Z,96474.03
2023-02-06T11:26:10.565Z,96469.69
2023-02-06T11:28:49.405Z,96476.84
2023-02-06T11:31:20.595Z,96472.31
2023-02-06T11:33:52.881Z,96475.72
2023-02-06T11:36:27.978Z,96471.34
2023-02-06T11:38:58.330Z,96473.91
2023-02-06T11:41:27.103Z,96471.97
2023-02-06T11:44:02.472Z,96469.41
2023-02-06T11:46:32.493Z,96458.72
2023-02-06T11:49:09.150Z,96461.81
2023-02-06T11:51:49.876Z,96451.59
2023-02-06T11:54:24.492Z,96455.94
2023-02-06T11:57:04.916Z,96438.59
2023-02-06T11:59:35.468Z,96448.88
2023-02-06T12:02:07.039Z,96443.69
2023-02-06T12:04:40.985Z,96443.13
2023-02-06T12:07:15.298Z,96433.41
2023-02-06T12:09:43.741Z,96427.72
2023-02-06T12:12:23.685Z,96432.56
2023-02-06T12:14:56.548Z,96429.75
2023-02-06T12:17:29.680Z,96417.91
2023-02-06T12:20:05.372Z,96422.41
2023-02-06T12:22:41.350Z,96412.56
2023-02-06T12:25:27.173Z,96411.28
2023-02-06T12:27:59.876Z,96414.84
2023-02-06T12:30:34.581Z,96413.75
2023-02-06T12:33:11.049Z,96411.00
2023-02-06T12:35:47.849Z,96405.84
2023-02-06T12:38:25.417Z,96415.25
2023-02-06T12:41:07.770Z,96413.34
2023-02-06T12:43:39.177Z,96416.25
2023-02-06T12:46:13.484Z,96411.06
2023-02-06T12:48:45.015Z,96411.38
2023-02-06T12:51:20.806Z,96405.78
2023-02-06T12:53:53.777Z,96405.59
2023-02-06T12:56:28.872Z,96410.03
2023-02-06T12:59:12.050Z,96403.06
2023-02-06T13:01:52.229Z,96405.88
2023-02-06T13:04:24.937Z,96396.47
2023-02-06T13:06:58.183Z,96404.59
2023-02-06T13:09:29.561Z,96397.75
2023-02-06T13:12:09.633Z,96402.56
2023-02-06T13:14:39.865Z,96398.69
2023-02-06T13:17:11.804Z,96399.28
2023-02-06T13:20:01.152Z,96395.41
2023-02-06T13:22:43.912Z,96387.63
2023-02-06T13:25:54.602Z,96391.72
2023-02-06T13:28:46.450Z,96388.88
2023-02-06T13:31:35.679Z,96384.56
2023-02-06T13:34:08.681Z,96389.25
2023-02-06T13:36:57.297Z,96391.56
2023-02-06T13:39:33.850Z,96385.69
2023-02-06T13:42:35.435Z,96395.75
2023-02-06T13:45:06.577Z,96393.78
2023-02-06T13:48:15.040Z,96385.38
2023-02-06T13:51:06.255Z,96390.81
2023-02-06T13:54:22.167Z,96389.84
2023-02-06T13:57:12.308Z,96398.59
2023-02-06T13:59:46.209Z,96400.44
2023-02-06T14:02:19.480Z,96403.50
2023-02-06T14:04:48.713Z,96396.75
2023-02-06T14:07:42.072Z,96396.09
2023-02-06T14:10:37.913Z,96394.47
2023-02-06T14:13:24.233Z,96396.75
2023-02-06T14:16:06.045Z,96390.28
2023-02-06T14:18:46.345Z,96379.25
2023-02-06T14:21:29.992Z,96395.47
2023-02-06T14:24:16.805Z,96395.78
2023-02-06T14:26:52.116Z,96388.66
2023-02-06T14:29:32.764Z,96383.16
2023-02-06T14:32:15.092Z,96388.97
2023-02-06T14:34:59.209Z,96377.88
2023-02-06T14:37:51.355Z,96376.22
2023-02-06T14:40:23.672Z,96385.75
2023-02-06T14:42:54.417Z,96370.38
2023-02-06T14:45:40.860Z,96377.66
2023-02-06T14:48:28.114Z,96383.06
2023-02-06T14:50:59.617Z,96382.91
2023-02-06T14:53:32.386Z,96372.38
2023-02-06T14:56:10.389Z,96378.13
2023-02-06T14:58:38.692Z,96367.53
2023-02-06T15:01:21.789Z,96374.50
2023-02-06T15:03:54.821Z,96370.81
2023-02-06T15:06:34.491Z,96364.13
2023-02-06T15:09:03.119Z,96359.09
2023-02-06T15:11:33.633Z,96364.28
2023-02-06T15:14:05.096Z,96353.28
2023-02-06T15:16:47.024Z,96348.75
2023-02-06T15:19:21.577Z,96350.31
2023-02-06T15:21:51.616Z,96353.25
2023-02-06T15:24:34.054Z,96348.38
2023-02-06T15:27:11.185Z,96347.72
2023-02-06T15:29:39.272Z,96345.13
2023-02-06T15:32:21.375Z,96337.72
2023-02-06T15:34:49.401Z,96345.13
2023-02-06T15:37:22.202Z,96345.16
2023-02-06T15:39:50.964Z,96340.66
2023-02-06T15:42:20.839Z,96329.19
2023-02-06T15:44:50.444Z,96330.47
2023-02-06T15:47:21.507Z,96335.81
2023-02-06T15:49:51.742Z,96332.47
2023-02-06T15:52:35.339Z,96325.72
2023-02-06T15:55:04.853Z,96327.19
2023-02-06T15:57:35.905Z,96330.56
2023-02-06T16:00:09.531Z,96336.72
2023-02-06T16:02:42.117Z,96332.53
2023-02-06T16:05:19.960Z,96334.00
2023-02-06T16:07:49.608Z,96335.13
2023-02-06T16:10:23.106Z,96333.66
2023-02-06T16:12:52.401Z,96330.44
2023-02-06T16:15:30.344Z,96332.53
2023-02-06T16:18:01.384Z,96341.28
2023-02-06T16:20:39.771Z,96337.06
2023-02-06T16:23:26.896Z,96323.53
2023-02-06T16:26:07.420Z,96320.56
2023-02-06T16:28:42.852Z,96338.34
2023-02-06T16:31:15.659Z,96331.50
2023-02-06T16:33:48.124Z,96329.88
2023-02-06T16:36:17.916Z,96329.59
2023-02-06T16:38:54.054Z,96326.06
2023-02-06T16:41:29.263Z,96326.41
2023-02-06T16:43:58.187Z,96320.28
2023-02-06T16:46:27.404Z,96320.28
2023-02-06T16:48:57.185Z,96329.81
2023-02-06T16:51:28.544Z,96322.19
2023-02-06T16:53:57.238Z,96318.94
2023-02-06T16:56:25.621Z,96319.13
2023-02-06T16:58:53.543Z,96323.16
2023-02-06T17:01:26.561Z,96324.13
2023-02-06T17:03:56.821Z,96331.25
2023-02-06T17:06:26.981Z,96330.91
2023-02-06T17:08:58.739Z,96323.16
2023-02-06T17:11:28.112Z,96323.13
2023-02-06T17:13:56.154Z,96328.47
2023-02-06T17:16:25.888Z,96319.22
2023-02-06T17:18:54.370Z,96317.81
2023-02-06T17:21:25.218Z,96311.81
2023-02-06T17:23:53.161Z,96306.31
2023-02-06T17:26:23.314Z,96308.88
2023-02-06T17:28:52.148Z,96309.00
2023-02-06T17:31:20.394Z,96305.63
2023-02-06T17:33:48.587Z,96307.88
2023-02-06T17:36:18.205Z,96311.75
2023-02-06T17:38:47.594Z,96313.72
2023-02-06T17:41:15.477Z,96314.34
2023-02-06T17:43:43.406Z,96324.38
2023-02-06T17:46:12.068Z,96321.47
2023-02-06T17:48:42.705Z,96322.75
2023-02-06T17:51:10.862Z,96319.22
2023-02-06T17:53:38.909Z,96326.31
2023-02-06T17:56:12.646Z,96330.50
2023-02-06T17:58:40.766Z,96328.56
2023-02-06T18:01:12.282Z,96329.88
2023-02-06T18:03:40.281Z,96328.56
2023-02-06T18:06:08.805Z,96322.75
2023-02-06T18:08:36.789Z,96322.28
2023-02-06T18:11:11.555Z,96320.97
2023-02-06T18:13:39.710Z,96322.41
2023-02-06T18:16:08.598Z,96315.00
2023-02-06T18:18:36.606Z,96312.50
2023-02-06T18:21:04.697Z,96312.97
2023-02-06T18:23:32.623Z,96303.94
2023-02-06T18:26:03.521Z,96294.94
2023-02-06T18:28:34.109Z,96305.94
2023-02-06T18:31:02.921Z,96292.06
2023-02-06T18:33:32.085Z,96292.69
2023-02-06T18:36:00.016Z,96286.56
2023-02-06T18:38:28.073Z,96276.22
2023-02-06T18:40:55.997Z,96278.34
2023-02-06T18:43:22.864Z,96280.13
2023-02-06T18:45:52.179Z,96279.16
2023-02-06T18:48:20.100Z,96274.91
2023-02-06T18:50:48.055Z,96270.06
2023-02-06T18:53:16.179Z,96272.91
2023-02-06T18:55:44.090Z,96260.00
2023-02-06T18:58:12.029Z,96268.72
2023-02-06T19:00:42.445Z,96266.44
2023-02-06T19:03:11.773Z,96256.47
2023-02-06T19:05:39.868Z,96263.25
2023-02-06T19:08:07.771Z,96246.13
2023-02-06T19:10:36.005Z,96236.59
2023-02-06T19:13:04.077Z,96243.06
2023-02-06T19:15:34.480Z,96230.63
2023-02-06T19:18:03.137Z,96237.09
2023-02-06T19:20:32.787Z,96235.31
2023-02-06T19:23:00.718Z,96231.25
2023-02-06T19:25:28.653Z,96223.78
2023-02-06T19:27:56.905Z,96216.03
2023-02-06T19:30:25.038Z,96214.72
2023-02-06T19:32:52.981Z,96208.63
2023-02-06T19:35:20.921Z,96214.13
2023-02-06T19:37:51.441Z,96207.34
2023-02-06T19:40:19.401Z,96201.41
2023-02-06T19:42:47.353Z,96196.56
2023-02-06T19:45:15.287Z,96187.53
2023-02-06T19:47:43.181Z,96186.59
2023-02-06T19:50:13.939Z,96178.50
2023-02-06T19:52:42.184Z,96176.59
2023-02-06T19:55:11.897Z,96167.22
2023-02-06T19:57:40.733Z,96156.19
2023-02-06T20:00:10.040Z,96154.03
2023-02-06T20:02:39.093Z,96150.06
2023-02-06T20:05:07.760Z,96150.25
2023-02-06T20:07:35.704Z,96144.91
2023-02-06T20:10:05.252Z,96134.47
2023-02-06T20:12:34.676Z,96137.06
2023-02-06T20:15:02.670Z,96122.88
2023-02-06T20:17:30.633Z,96117.72
2023-02-06T20:19:59.700Z,96112.56
2023-02-06T20:22:27.762Z,96116.25
2023-02-06T20:24:55.688Z,96115.44
2023-02-06T20:27:23.574Z,96122.88
2023-02-06T20:29:53.003Z,96119.63
2023-02-06T20:32:20.904Z,96118.91
2023-02-06T20:34:48.840Z,96116.34
2023-02-06T20:37:17.733Z,96111.81
2023-02-06T20:39:45.681Z,96103.72
2023-02-06T20:42:13.577Z,96095.19
2023-02-06T20:44:41.458Z,96097.28
2023-02-06T20:47:10.793Z,96090.44
2023-02-06T20:49:38.706Z,96096.00
2023-02-06T20:52:06.962Z,96081.78
2023-02-06T20:54:34.874Z,96079.19
2023-02-06T20:57:02.878Z,96074.03
2023-02-06T20:59:31.474Z,96068.56
2023-02-06T21:01:59.503Z,96068.94
2023-02-06T21:04:29.227Z,96065.06
2023-02-06T21:06:57.193Z,96065.84
2023-02-06T21:09:25.585Z,96066.66
2023-02-06T21:11:53.571Z,96060.53
2023-02-06T21:14:21.690Z,96057.94
2023-02-06T21:16:50.078Z,96058.75
2023-02-06T21:19:19.993Z,96051.16
2023-02-06T21:21:50.235Z,96054.88
2023-02-06T21:24:18.480Z,96048.56
2023-02-06T21:26:46.430Z,96036.44
2023-02-06T21:29:15.856Z,96041.78
2023-02-06T21:31:44.307Z,96032.44
2023-02-06T21:34:15.089Z,96029.53
2023-02-06T21:36:43.707Z,96033.41
2023-02-06T21:39:17.494Z,96040.19
2023-02-06T21:41:47.337Z,96044.72
2023-02-06T21:44:15.259Z,96050.19
2023-02-06T21:46:43.162Z,96052.63
2023-02-06T21:49:11.802Z,96041.16
2023-02-06T21:51:40.143Z,96046.00
2023-02-06T21:54:08.126Z,96046.31
2023-02-06T21:56:39.069Z,96053.91
2023-02-06T21:59:07.902Z,96049.50
2023-02-06T22:01:36.297Z,96058.88
2023-02-06T22:04:05.119Z,96069.22
2023-02-06T22:06:36.840Z,96067.91
2023-02-06T22:09:07.778Z,96071.78
2023-02-06T22:11:38.842Z,96079.38
2023-02-06T22:14:09.393Z,96083.09
2023-02-06T22:16:37.381Z,96080.88
2023-02-06T22:19:06.486Z,96071.47
2023-02-06T22:21:35.757Z,96073.34
2023-02-06T22:24:06.275Z,96067.09
2023-02-06T22:26:36.912Z,96072.91
2023-02-06T22:29:07.470Z,96069.06
2023-02-06T22:31:36.680Z,96064.22
2023-02-06T22:34:04.989Z,96042.56
2023-02-06T22:36:33.934Z,96034.00
2023-02-06T22:39:04.490Z,96017.56
2023-02-06T22:41:32.424Z,95994.75
2023-02-06T22:44:00.501Z,95977.44
2023-02-06T22:46:31.663Z,95981.22
2023-02-06T22:48:59.802Z,95982.53
2023-02-06T22:51:27.876Z,95978.56
2023-02-06T22:53:56.525Z,95974.22
2023-02-06T22:56:31.368Z,95977.34
2023-02-06T22:59:01.631Z,95965.22
2023-02-06T23:01:33.209Z,95966.97
2023-02-06T23:04:02.734Z,95959.88
2023-02-06T23:06:32.342Z,95957.63
2023-02-06T23:09:02.385Z,95972.78
2023-02-06T23:11:31.824Z,95975.38
2023-02-06T23:14:01.976Z,95958.94
2023-02-06T23:16:33.288Z,95962.03
2023-02-06T23:19:04.509Z,95954.47
2023-02-06T23:21:34.000Z,95946.06
2023-02-06T23:24:01.907Z,95962.63
2023-02-06T23:26:30.519Z,95960.56
2023-02-06T23:28:59.276Z,95961.38
2023-02-06T23:31:28.306Z,95968.75
2023-02-06T23:33:57.639Z,95950.53
2023-02-06T23:36:27.640Z,95952.84
2023-02-06T23:38:56.290Z,95947.31
2023-02-06T23:41:26.482Z,95961.47
2023-02-06T23:43:56.153Z,95972.13
2023-02-06T23:46:25.533Z,95978.22
2023-02-06T23:48:53.530Z,95973.72
2023-02-06T23:51:23.688Z,95965.97
2023-02-06T23:53:52.651Z,95965.34
2023-02-06T23:56:22.676Z,95976.16
2023-02-06T23:58:51.389Z,95958.75
